Kuusiku, Estonia

1:55 AM EET on March 29, 2015 (GMT +0200)
Mikkori-Metsa, Kohila, Raplamaa | | Change Station
CLOSE
Current Station
Personal Weather Station
Location: Kohila, RAPLA COUNTY
Elevation: 195 ft
Nearby Weather Stations

Elev 195 ft 59.18 °N, 24.70 °E | Updated 46 seconds ago

Fog
Fog
33.2 °F
Feels Like 33 °F
N
3.0
Wind Variable Wind from SW
Gusts 7.2 mph

Today
High -- | Low -- °F
--% Chance of Precip.
Yesterday
High -- | Low -- °F
Precip. -- in
6:57 AM 7:55 PM
Waxing Gibbous, 66% visible
Pressure 29.86 in
Visibility 0.2 miles
Clouds
Windchill 33 °F
Dew Point 32 °F
Humidity 97%
Rainfall 0.00 in
Snow Depth Not available.
UV Not available.
Pollen Not available.
Air Quality Not available.
Flu Activity Not available.
METAR EETN 282350Z 19005KT 0300 R08/0900D FG VV001 01/00 Q1011 R08/290195

More Conditions Fewer Conditions

Pressure 29.86 in
Visibility 0.2 miles
Clouds
Windchill 33 °F
Dew Point 32 °F
Humidity 97%
Rainfall 0.00 in
Snow Depth Not available.
UV Not available.
Pollen Not available.
Air Quality Not available.
Flu Activity Not available.
METAR EETN 282350Z 19005KT 0300 R08/0900D FG VV001 01/00 Q1011 R08/290195

More Conditions Fewer Conditions

10-Day Weather Forecast

Almanac

Astronomy

Mar. 29, 2015 Rise Set
Actual Time
Civil Twilight
Nautical Twilight
Astronomical Twilight
Moon
Length of Visible Light
Length of Day
Tomorrow will be .
, % of the Moon is Illuminated

Today's Extremes

Country Highs Country Lows

Community

WunderPhotos

Upload Photos

1,809,128 photos uploaded!

WunderBlogs® & News

Nearby

Air Quality

  Air Quality AQ Index Pollutant
Not available.

Snow Depth

Station Depth Elevation

Earthquake Activity

City Distance Mag. Time & Date
Minimum magnitude displayed is 2.5.

Coastal Water Temperatures

Place Temperature

Stations

Nearby Weather Stations

Station Location Temp. Windchill Dew Point Humidity Wind Precip. Elev Updated Type